Time;durP1;ratioP1;P1;durP2;ratioP2;P2;SDS_P1;SDS_P2;PMS_P1;PMS_P2;Temp;Humidity;BMP_temperature;BMP_pressure;BME280_temperature;BME280_humidity;BME280_pressure;Samples;Min_cycle;Max_cycle;Signal;HPM_P1;HPM_P2
2023/06/01 00:00:09;;;;;;;15.98;8.52;;;;;;;11.30;100.00;102229.25;5061137;28;20045;-63
2023/06/01 00:02:37;;;;;;;15.90;8.50;;;;;;;11.12;100.00;102217.75;5059220;28;20163;-62
2023/06/01 00:05:06;;;;;;;15.80;8.57;;;;;;;11.11;100.00;102221.34;5065651;28;20040;-63
2023/06/01 00:07:36;;;;;;;14.40;7.70;;;;;;;11.21;100.00;102221.78;5060361;28;20102;-63
2023/06/01 00:10:05;;;;;;;19.42;8.48;;;;;;;11.26;100.00;102217.16;5043449;28;20055;-63
2023/06/01 00:12:33;;;;;;;17.88;8.52;;;;;;;11.19;100.00;102210.44;5058661;28;20476;-62
2023/06/01 00:15:03;;;;;;;18.52;7.90;;;;;;;11.00;100.00;102205.16;5060918;28;20064;-62
2023/06/01 00:17:32;;;;;;;17.60;8.27;;;;;;;10.99;100.00;102214.84;5063895;28;20171;-63
2023/06/01 00:20:01;;;;;;;16.73;8.45;;;;;;;11.08;100.00;102210.09;5058941;28;20384;-62
2023/06/01 00:22:34;;;;;;;14.07;8.68;;;;;;;11.13;100.00;102200.19;5056398;28;20145;-62
2023/06/01 00:25:04;;;;;;;16.52;8.82;;;;;;;10.94;100.00;102205.44;5057088;28;20469;-63
2023/06/01 00:27:32;;;;;;;17.95;8.45;;;;;;;11.04;100.00;102209.34;5057196;28;20098;-61
2023/06/01 00:30:03;;;;;;;14.43;8.93;;;;;;;11.03;100.00;102206.81;5061160;28;20029;-61
2023/06/01 00:32:31;;;;;;;17.40;8.45;;;;;;;11.09;100.00;102214.44;5060714;28;20053;-61
2023/06/01 00:34:59;;;;;;;16.42;9.50;;;;;;;11.02;100.00;102211.22;5060992;28;20072;-62
2023/06/01 00:37:30;;;;;;;19.77;8.95;;;;;;;11.06;100.00;102209.31;5060940;28;20060;-62
2023/06/01 00:39:58;;;;;;;16.58;9.00;;;;;;;11.06;100.00;102214.59;5063070;28;20036;-61
2023/06/01 00:42:28;;;;;;;15.25;9.02;;;;;;;11.08;100.00;102217.97;5060473;28;20537;-62
2023/06/01 00:44:58;;;;;;;15.65;9.32;;;;;;;10.92;100.00;102215.19;5046292;28;20048;-63
2023/06/01 00:47:27;;;;;;;16.45;9.68;;;;;;;10.96;100.00;102208.84;5058335;28;20140;-62
2023/06/01 00:49:55;;;;;;;14.40;8.98;;;;;;;10.88;100.00;102208.34;5056282;28;20128;-62
2023/06/01 00:52:27;;;;;;;16.98;9.93;;;;;;;10.86;100.00;102213.69;5057776;28;20062;-63
2023/06/01 00:54:55;;;;;;;15.70;9.52;;;;;;;10.92;100.00;102215.19;5059065;28;20055;-55
2023/06/01 00:57:26;;;;;;;17.65;9.98;;;;;;;10.84;100.00;102212.91;5061950;28;20091;-54
2023/06/01 00:59:56;;;;;;;18.92;10.15;;;;;;;10.82;100.00;102212.09;5073026;28;20040;-54
2023/06/01 01:02:25;;;;;;;19.25;10.25;;;;;;;10.87;100.00;102212.75;5071655;28;20526;-55
2023/06/01 01:04:55;;;;;;;19.73;10.25;;;;;;;10.96;100.00;102217.63;5070086;28;20043;-51
2023/06/01 01:07:33;;;;;;;17.38;10.63;;;;;;;11.07;100.00;102219.78;5054343;28;20053;-53
2023/06/01 01:10:11;;;;;;;17.42;10.13;;;;;;;11.06;100.00;102228.59;5053451;28;20056;-53
2023/06/01 01:12:46;;;;;;;16.77;10.55;;;;;;;10.98;100.00;102223.66;5053222;28;20057;-54
2023/06/01 01:15:25;;;;;;;19.40;11.23;;;;;;;10.89;100.00;102220.59;5050361;28;20037;-54
2023/06/01 01:18:01;;;;;;;16.83;10.07;;;;;;;10.96;100.00;102222.00;5069736;28;20135;-53
2023/06/01 01:20:34;;;;;;;16.83;10.38;;;;;;;11.05;100.00;102218.13;5071527;28;20045;-52
2023/06/01 01:23:11;;;;;;;17.67;9.95;;;;;;;10.90;100.00;102220.50;5062553;28;20272;-51
2023/06/01 01:26:10;;;;;;;18.63;10.80;;;;;;;10.82;100.00;102214.75;5051313;28;20053;-53
2023/06/01 01:28:43;;;;;;;19.55;10.75;;;;;;;10.83;100.00;102216.47;5053437;28;20059;-53
2023/06/01 01:31:14;;;;;;;14.52;9.48;;;;;;;10.85;100.00;102213.75;5057488;28;20124;-53
2023/06/01 01:33:44;;;;;;;16.42;9.95;;;;;;;10.90;100.00;102212.63;5059797;28;20063;-51
2023/06/01 01:36:17;;;;;;;17.58;10.30;;;;;;;10.94;100.00;102211.56;5060805;28;20119;-52
2023/06/01 01:38:47;;;;;;;;;;;;;;;10.98;100.00;102214.91;5056872;28;20519;-51
2023/06/01 01:41:16;;;;;;;14.45;9.80;;;;;;;10.81;100.00;102224.44;5059955;28;19925;-52
2023/06/01 01:43:45;;;;;;;16.67;10.10;;;;;;;10.75;100.00;102222.03;5061617;28;20070;-52
2023/06/01 01:46:25;;;;;;;19.30;11.43;;;;;;;10.78;100.00;102218.44;5057874;28;20052;-55
2023/06/01 01:49:01;;;;;;;16.95;10.88;;;;;;;10.81;100.00;102216.53;5056347;28;20053;-54
2023/06/01 01:51:37;;;;;;;14.75;9.90;;;;;;;10.87;100.00;102202.25;5056949;28;20064;-52
2023/06/01 01:54:07;;;;;;;18.40;10.13;;;;;;;10.79;100.00;102207.84;5053945;28;20072;-52
2023/06/01 01:56:37;;;;;;;17.52;10.77;;;;;;;10.78;100.00;102207.91;5058413;28;20135;-62
2023/06/01 01:59:08;;;;;;;16.80;10.23;;;;;;;10.73;100.00;102212.50;5059308;28;20453;-53
2023/06/01 02:01:37;;;;;;;18.08;9.93;;;;;;;10.69;100.00;102205.66;5058854;28;20052;-61
2023/06/01 02:04:08;;;;;;;18.53;10.43;;;;;;;10.65;100.00;102208.44;5059350;28;20048;-53
2023/06/01 02:06:36;;;;;;;16.10;10.18;;;;;;;10.61;100.00;102214.75;5054895;28;20421;-62
2023/06/01 02:09:06;;;;;;;17.33;10.52;;;;;;;10.56;100.00;102208.84;5072445;28;20522;-61
2023/06/01 02:11:35;;;;;;;14.93;9.75;;;;;;;10.60;100.00;102205.16;5068359;28;20040;-61
2023/06/01 02:14:03;;;;;;;16.02;9.73;;;;;;;10.69;100.00;102209.19;5062187;28;20060;-63
2023/06/01 02:16:33;;;;;;;17.08;9.45;;;;;;;10.62;100.00;102203.31;5052552;28;20514;-61
2023/06/01 02:19:02;;;;;;;16.55;10.15;;;;;;;10.66;100.00;102196.13;5050095;28;20114;-62
2023/06/01 02:21:31;;;;;;;15.30;9.25;;;;;;;10.70;100.00;102210.03;5054780;28;20041;-61
2023/06/01 02:24:04;;;;;;;17.15;10.05;;;;;;;10.74;100.00;102208.97;5053411;28;20135;-62
2023/06/01 02:26:32;;;;;;;15.57;10.05;;;;;;;10.64;100.00;102205.88;5059226;28;20392;-61
2023/06/01 02:29:02;;;;;;;14.98;9.38;;;;;;;10.74;100.00;102198.44;5061733;28;20123;-52
2023/06/01 02:31:30;;;;;;;16.70;10.07;;;;;;;10.69;100.00;102203.03;5061143;28;20063;-61
2023/06/01 02:34:00;;;;;;;16.55;9.75;;;;;;;10.73;100.00;102200.22;5058105;28;20052;-61
2023/06/01 02:36:29;;;;;;;19.27;9.75;;;;;;;10.75;100.00;102203.63;5057637;28;20053;-64
2023/06/01 02:38:57;;;;;;;17.15;9.00;;;;;;;10.77;100.00;102204.44;5060332;28;20045;-62
2023/06/01 02:41:25;;;;;;;15.68;9.50;;;;;;;10.77;100.00;102199.16;5054907;28;20029;-62
2023/06/01 02:43:54;;;;;;;19.17;10.18;;;;;;;10.79;100.00;102196.47;5058571;28;20051;-61
2023/06/01 02:46:22;;;;;;;18.17;10.15;;;;;;;10.77;100.00;102200.94;5056678;28;20053;-61
2023/06/01 02:48:51;;;;;;;17.48;9.30;;;;;;;10.71;100.00;102203.84;5061590;28;20059;-63
2023/06/01 02:51:20;;;;;;;18.83;10.88;;;;;;;10.67;100.00;102197.00;5050599;28;20049;-62
2023/06/01 02:53:48;;;;;;;16.05;9.10;;;;;;;10.67;100.00;102197.84;5056769;28;20045;-62
2023/06/01 02:56:16;;;;;;;14.65;9.95;;;;;;;10.70;100.00;102207.38;5059860;28;20519;-63
2023/06/01 02:58:45;;;;;;;20.42;11.38;;;;;;;10.62;100.00;102218.25;5063563;28;20048;-63
2023/06/01 03:01:14;;;;;;;15.02;9.25;;;;;;;10.65;100.00;102204.97;5068895;28;20079;-62
2023/06/01 03:03:44;;;;;;;16.35;9.48;;;;;;;10.58;100.00;102204.38;5050929;28;20052;-62
2023/06/01 03:06:13;;;;;;;18.17;10.10;;;;;;;10.52;100.00;102209.06;5068294;28;20052;-62
2023/06/01 03:08:42;;;;;;;19.33;10.32;;;;;;;10.58;100.00;102198.25;5070774;28;20048;-62
2023/06/01 03:11:10;;;;;;;19.33;10.05;;;;;;;10.60;100.00;102205.16;5072081;28;20496;-62
2023/06/01 03:13:41;;;;;;;18.95;9.80;;;;;;;10.64;100.00;102201.47;5072941;28;20066;-63
2023/06/01 03:16:09;;;;;;;18.60;9.82;;;;;;;10.68;100.00;102196.94;5071617;28;20055;-62
2023/06/01 03:18:38;;;;;;;20.50;8.73;;;;;;;10.77;100.00;102196.53;5074291;28;20045;-61
2023/06/01 03:21:06;;;;;;;14.38;8.40;;;;;;;10.80;100.00;102195.53;5057208;28;20059;-62
2023/06/01 03:23:35;;;;;;;14.55;8.77;;;;;;;10.77;100.00;102195.66;5065218;28;20044;-62
2023/06/01 03:26:05;;;;;;;18.40;9.07;;;;;;;10.77;100.00;102203.56;5072489;28;20565;-61
2023/06/01 03:28:33;;;;;;;17.35;8.77;;;;;;;10.73;100.00;102201.97;5067598;28;20045;-63
2023/06/01 03:31:02;;;;;;;15.90;8.52;;;;;;;10.72;100.00;102200.28;5060611;28;20070;-64
2023/06/01 03:33:30;;;;;;;16.85;8.93;;;;;;;10.64;100.00;102198.00;5060539;28;20043;-66
2023/06/01 03:35:58;;;;;;;16.02;8.50;;;;;;;10.61;100.00;102203.41;5067348;28;20045;-62
2023/06/01 03:38:29;;;;;;;15.68;8.90;;;;;;;10.52;100.00;102202.00;5062683;28;20163;-63
2023/06/01 03:41:00;;;;;;;18.98;8.57;;;;;;;10.49;100.00;102195.09;5059017;28;20059;-52
2023/06/01 03:43:30;;;;;;;14.98;8.32;;;;;;;10.47;100.00;102196.09;5059263;28;20044;-52
2023/06/01 03:45:58;;;;;;;15.20;8.38;;;;;;;10.53;100.00;102193.19;5060013;28;20381;-62
2023/06/01 03:48:29;;;;;;;15.32;7.68;;;;;;;10.64;100.00;102188.31;5062598;28;20090;-62
2023/06/01 03:50:57;;;;;;;18.55;8.20;;;;;;;10.65;100.00;102191.81;5059876;28;20037;-62
2023/06/01 03:53:26;;;;;;;13.57;7.53;;;;;;;10.63;100.00;102199.78;5058144;28;20040;-63
2023/06/01 03:55:54;;;;;;;15.00;7.20;;;;;;;10.65;100.00;102194.44;5058419;28;20480;-62
2023/06/01 03:58:23;;;;;;;13.50;7.30;;;;;;;10.48;100.00;102195.16;5065937;28;20051;-62
2023/06/01 04:00:53;;;;;;;17.08;7.57;;;;;;;10.49;100.00;102189.84;5069563;28;20146;-63
2023/06/01 04:03:22;;;;;;;15.48;7.45;;;;;;;10.44;100.00;102194.47;5065137;28;20041;-53
2023/06/01 04:05:51;;;;;;;14.10;7.25;;;;;;;10.54;100.00;102197.53;5068306;28;20053;-53
2023/06/01 04:08:22;;;;;;;16.70;7.55;;;;;;;10.43;100.00;102198.00;5058189;28;20051;-55
2023/06/01 04:10:50;;;;;;;14.23;7.30;;;;;;;10.46;100.00;102202.28;5056471;28;20080;-53
2023/06/01 04:13:18;;;;;;;14.88;7.15;;;;;;;10.40;100.00;102195.53;5058421;28;20098;-54
2023/06/01 04:15:46;;;;;;;17.27;7.55;;;;;;;10.42;100.00;102190.19;5060313;28;20400;-54
2023/06/01 04:18:16;;;;;;;14.80;7.30;;;;;;;10.58;100.00;102195.63;5058552;28;20060;-52
2023/06/01 04:20:44;;;;;;;13.77;7.47;;;;;;;10.59;100.00;102197.34;5059592;28;20036;-50
2023/06/01 04:23:12;;;;;;;14.73;7.20;;;;;;;10.58;100.00;102199.13;5059532;28;20063;-54
2023/06/01 04:25:44;;;;;;;15.18;7.55;;;;;;;10.63;100.00;102189.25;5058456;28;20044;-50
2023/06/01 04:28:12;;;;;;;16.77;7.18;;;;;;;10.67;100.00;102197.00;5060056;28;20988;-52
2023/06/01 04:30:40;;;;;;;17.73;7.80;;;;;;;10.64;100.00;102201.47;5058391;28;20036;-55
2023/06/01 04:33:09;;;;;;;17.30;7.43;;;;;;;10.70;100.00;102191.59;5059954;28;20048;-52
2023/06/01 04:35:39;;;;;;;16.25;7.18;;;;;;;10.71;100.00;102198.59;5065028;28;20043;-55
2023/06/01 04:38:08;;;;;;;13.57;7.20;;;;;;;10.62;100.00;102203.31;5061503;28;20944;-65
2023/06/01 04:40:37;;;;;;;16.23;6.90;;;;;;;10.73;100.00;102205.50;5062203;28;20048;-53
2023/06/01 04:43:06;;;;;;;18.70;7.28;;;;;;;10.84;100.00;102205.00;5056944;28;20539;-52
2023/06/01 04:45:38;;;;;;;16.15;6.90;;;;;;;10.72;100.00;102200.28;5061724;28;20040;-54
2023/06/01 04:48:09;;;;;;;14.27;7.18;;;;;;;10.76;100.00;102209.75;5065576;28;20125;-52
2023/06/01 04:50:40;;;;;;;18.60;7.72;;;;;;;10.80;100.00;102200.81;5061696;28;20606;-54
2023/06/01 04:53:08;;;;;;;20.10;7.70;;;;;;;10.86;100.00;102194.41;5057296;28;20056;-52
2023/06/01 04:55:36;;;;;;;16.08;7.03;;;;;;;10.96;100.00;102207.09;5060410;28;20048;-54
2023/06/01 04:58:05;;;;;;;17.05;7.65;;;;;;;10.93;100.00;102209.00;5062446;28;20059;-54
2023/06/01 05:00:33;;;;;;;13.40;6.50;;;;;;;10.98;100.00;102205.22;5070795;28;20742;-62
2023/06/01 05:03:02;;;;;;;19.20;6.60;;;;;;;11.06;100.00;102212.78;5070410;28;20040;-61
2023/06/01 05:05:31;;;;;;;14.75;7.53;;;;;;;11.07;100.00;102216.25;5069846;28;20040;-60
2023/06/01 05:08:00;;;;;;;16.13;7.20;;;;;;;11.19;100.00;102212.22;5070554;28;20052;-62
2023/06/01 05:10:28;;;;;;;13.65;6.68;;;;;;;11.18;100.00;102208.75;5070309;28;20411;-60
2023/06/01 05:12:56;;;;;;;14.93;6.65;;;;;;;11.25;100.00;102211.97;5068982;28;20054;-61
2023/06/01 05:15:27;;;;;;;16.40;7.05;;;;;;;11.25;100.00;102214.59;5070541;28;20052;-61
2023/06/01 05:17:55;;;;;;;15.75;6.70;;;;;;;11.39;100.00;102221.84;5070721;28;20056;-61
2023/06/01 05:20:23;;;;;;;13.52;6.50;;;;;;;11.36;100.00;102214.94;5069565;28;20471;-63
2023/06/01 05:22:51;;;;;;;11.70;5.80;;;;;;;11.41;100.00;102212.94;5035139;28;20048;-62
2023/06/01 05:25:21;;;;;;;14.90;6.90;;;;;;;11.45;100.00;102211.00;5052747;28;20147;-61
2023/06/01 05:27:49;;;;;;;11.07;6.50;;;;;;;11.42;100.00;102212.00;5048927;28;20041;-61
2023/06/01 05:30:17;;;;;;;15.40;6.93;;;;;;;11.39;100.00;102221.84;5060648;28;20049;-62
2023/06/01 05:32:45;;;;;;;12.55;6.63;;;;;;;11.32;100.00;102226.53;5057865;28;20036;-62
2023/06/01 05:35:13;;;;;;;12.82;6.57;;;;;;;11.19;100.00;102220.97;5057212;28;20045;-62
2023/06/01 05:37:41;;;;;;;13.38;6.25;;;;;;;11.28;100.00;102219.72;5057616;28;20503;-62
2023/06/01 05:40:13;;;;;;;14.65;7.13;;;;;;;11.31;100.00;102214.28;5058346;28;20056;-53
2023/06/01 05:42:43;;;;;;;16.70;6.80;;;;;;;11.30;100.00;102217.84;5056162;28;20066;-53
2023/06/01 05:45:11;;;;;;;16.52;6.75;;;;;;;11.37;100.00;102215.78;5055590;28;21807;-52
2023/06/01 05:47:39;;;;;;;15.23;7.43;;;;;;;11.37;100.00;102221.06;5053666;28;20144;-53
2023/06/01 05:50:08;;;;;;;14.38;6.70;;;;;;;11.47;100.00;102222.34;5060052;28;20491;-54
2023/06/01 05:52:36;;;;;;;15.57;6.68;;;;;;;11.48;100.00;102224.91;5059540;28;20033;-49
2023/06/01 05:55:05;;;;;;;13.88;6.60;;;;;;;11.52;100.00;102222.97;5059948;28;20067;-53
2023/06/01 05:57:33;;;;;;;15.77;6.90;;;;;;;11.61;100.00;102224.31;5041604;28;20037;-55
2023/06/01 06:00:07;;;;;;;18.92;7.03;;;;;;;11.67;100.00;102222.25;5056107;28;20056;-53
2023/06/01 06:02:36;;;;;;;14.85;7.15;;;;;;;11.64;100.00;102227.66;5056080;28;20044;-54
2023/06/01 06:05:05;;;;;;;13.65;6.53;;;;;;;11.55;100.00;102229.88;5062309;28;20048;-54
2023/06/01 06:07:33;;;;;;;15.48;6.82;;;;;;;11.56;100.00;102229.81;5056011;28;20106;-54
2023/06/01 06:10:02;;;;;;;12.27;6.40;;;;;;;11.64;100.00;102227.66;5064821;28;20148;-53
2023/06/01 06:12:30;;;;;;;13.82;6.38;;;;;;;11.77;100.00;102229.72;5060747;28;20113;-49
2023/06/01 06:14:58;;;;;;;16.13;6.47;;;;;;;11.75;100.00;102223.66;5057747;28;20048;-56
2023/06/01 06:17:27;;;;;;;15.50;6.55;;;;;;;11.81;100.00;102224.22;5059401;28;20040;-53
2023/06/01 06:19:58;;;;;;;15.30;6.90;;;;;;;11.84;100.00;102223.22;5057076;28;20053;-52
2023/06/01 06:22:26;;;;;;;17.60;7.18;;;;;;;12.06;100.00;102216.91;5062278;28;20040;-56
2023/06/01 06:24:57;;;;;;;16.08;6.53;;;;;;;12.07;100.00;102221.28;5062025;28;20044;-52
2023/06/01 06:27:25;;;;;;;14.38;6.40;;;;;;;12.28;100.00;102214.91;5066736;28;20391;-51
2023/06/01 06:29:56;;;;;;;12.32;6.75;;;;;;;12.32;100.00;102216.47;5071340;28;20048;-53
2023/06/01 06:32:24;;;;;;;14.55;6.05;;;;;;;12.48;100.00;102216.53;5064117;28;20037;-53
2023/06/01 06:34:54;;;;;;;13.10;6.75;;;;;;;12.47;100.00;102213.97;5059679;28;20400;-52
2023/06/01 06:37:22;;;;;;;15.13;7.13;;;;;;;12.49;100.00;102220.03;5063714;28;20049;-54
2023/06/01 06:39:50;;;;;;;17.80;7.00;;;;;;;12.50;100.00;102219.06;5071865;28;20058;-52
2023/06/01 06:42:18;;;;;;;13.52;6.97;;;;;;;12.60;100.00;102219.47;5061680;28;20494;-53
2023/06/01 06:44:49;;;;;;;14.23;6.82;;;;;;;12.50;100.00;102221.72;5060238;28;20143;-53
2023/06/01 06:47:19;;;;;;;13.18;6.32;;;;;;;12.75;100.00;102228.34;5043398;28;20048;-54
2023/06/01 06:49:51;;;;;;;14.02;6.70;;;;;;;12.98;100.00;102225.38;5052784;28;20358;-49
2023/06/01 06:52:20;;;;;;;13.55;6.38;;;;;;;13.10;100.00;102220.34;5053572;28;20052;-53
2023/06/01 06:54:49;;;;;;;13.65;6.05;;;;;;;13.34;100.00;102220.81;5063958;28;20565;-54
2023/06/01 06:57:17;;;;;;;13.93;6.07;;;;;;;13.65;100.00;102217.34;5058310;28;20534;-62
2023/06/01 06:59:45;;;;;;;15.80;6.53;;;;;;;13.85;100.00;102224.16;5071346;28;20072;-63
2023/06/01 07:02:16;;;;;;;16.13;6.78;;;;;;;13.97;100.00;102225.22;5072357;28;20427;-64
2023/06/01 07:04:44;;;;;;;12.73;5.85;;;;;;;13.98;100.00;102226.94;5054572;28;20525;-55
2023/06/01 07:07:12;;;;;;;13.90;6.03;;;;;;;14.17;100.00;102233.81;5072534;28;20044;-54
2023/06/01 07:09:42;;;;;;;13.40;6.03;;;;;;;14.23;100.00;102225.50;5072927;28;20060;-64
2023/06/01 07:12:10;;;;;;;11.93;5.70;;;;;;;14.31;100.00;102225.06;5071382;28;20559;-63
2023/06/01 07:14:38;;;;;;;12.82;5.72;;;;;;;14.41;100.00;102223.59;5055200;28;20045;-63
2023/06/01 07:17:07;;;;;;;13.80;6.32;;;;;;;14.42;100.00;102224.44;5073011;28;20062;-63
2023/06/01 07:19:35;;;;;;;11.70;6.22;;;;;;;14.41;100.00;102230.66;5054801;28;20067;-63
2023/06/01 07:22:04;;;;;;;14.10;6.15;;;;;;;14.18;100.00;102230.22;5075299;28;20052;-63
2023/06/01 07:24:33;;;;;;;13.98;6.05;;;;;;;14.22;100.00;102230.88;5072798;28;20115;-63
2023/06/01 07:27:02;;;;;;;12.65;5.93;;;;;;;14.39;100.00;102225.44;5071372;28;20051;-64
2023/06/01 07:29:33;;;;;;;12.38;5.90;;;;;;;14.51;100.00;102234.47;5063502;28;20041;-63
2023/06/01 07:32:01;;;;;;;15.60;6.43;;;;;;;14.63;100.00;102225.81;5063872;28;20068;-63
2023/06/01 07:34:30;;;;;;;9.90;5.80;;;;;;;14.80;100.00;102223.94;5061789;28;20036;-64
2023/06/01 07:36:58;;;;;;;14.55;5.80;;;;;;;15.10;100.00;102225.63;5060376;28;20495;-65
2023/06/01 07:39:43;;;;;;;13.60;5.88;;;;;;;15.19;100.00;102222.41;5043638;28;20392;-63
2023/06/01 07:42:13;;;;;;;14.25;6.20;;;;;;;15.14;100.00;102206.78;5063524;28;20044;-63
2023/06/01 07:44:41;;;;;;;16.58;5.63;;;;;;;15.17;100.00;102219.00;5063854;28;20052;-64
2023/06/01 07:47:09;;;;;;;19.33;5.82;;;;;;;15.49;100.00;102216.13;5057954;28;20041;-64
2023/06/01 07:49:37;;;;;;;13.55;5.85;;;;;;;15.77;100.00;102215.16;5060812;28;20131;-65
2023/06/01 07:52:07;;;;;;;13.07;5.50;;;;;;;15.99;100.00;102217.28;5070362;28;20037;-64
2023/06/01 07:54:36;;;;;;;14.23;5.53;;;;;;;16.22;100.00;102217.53;5066159;28;20041;-64
2023/06/01 07:57:04;;;;;;;11.45;5.38;;;;;;;16.39;100.00;102206.63;5061123;28;20127;-64
2023/06/01 07:59:34;;;;;;;11.57;5.38;;;;;;;16.39;100.00;102209.28;5046929;28;20040;-64
2023/06/01 08:02:02;;;;;;;11.32;5.50;;;;;;;16.42;100.00;102205.56;5061732;28;20044;-63
2023/06/01 08:04:33;;;;;;;14.23;5.72;;;;;;;16.29;100.00;102205.56;5057467;28;20048;-65
2023/06/01 08:07:03;;;;;;;13.05;5.65;;;;;;;16.17;100.00;102217.84;5061742;28;20058;-62
2023/06/01 08:09:31;;;;;;;10.70;5.88;;;;;;;16.24;100.00;102210.34;5040341;28;20163;-63
2023/06/01 08:12:00;;;;;;;12.52;5.13;;;;;;;16.25;100.00;102206.69;5059863;28;20090;-64
2023/06/01 08:14:33;;;;;;;12.25;4.65;;;;;;;16.51;100.00;102206.72;5056096;28;20049;-66
2023/06/01 08:17:06;;;;;;;11.38;5.35;;;;;;;16.63;100.00;102210.34;5061176;28;20072;-64
2023/06/01 08:19:35;;;;;;;12.27;5.50;;;;;;;16.77;100.00;102204.94;5058092;28;20041;-63
2023/06/01 08:22:05;;;;;;;11.98;5.40;;;;;;;17.11;100.00;102201.72;5047696;28;20048;-64
2023/06/01 08:24:35;;;;;;;15.25;5.65;;;;;;;16.99;100.00;102195.50;5058925;28;20048;-63
2023/06/01 08:27:17;;;;;;;12.38;5.63;;;;;;;17.40;100.00;102192.47;5061754;28;20098;-64
2023/06/01 08:29:47;;;;;;;10.70;5.65;;;;;;;17.46;98.33;102193.00;5059038;28;20044;-64
2023/06/01 08:32:18;;;;;;;9.60;4.60;;;;;;;17.68;98.95;102195.78;5063526;28;20060;-55
2023/06/01 08:34:46;;;;;;;12.23;5.25;;;;;;;17.71;98.70;102187.56;5058948;28;20033;-64
2023/06/01 08:37:15;;;;;;;11.32;5.38;;;;;;;17.85;99.79;102181.22;5062662;28;20143;-64
2023/06/01 08:39:46;;;;;;;12.98;5.82;;;;;;;18.04;96.47;102186.03;5037131;28;20053;-64
2023/06/01 08:42:21;;;;;;;11.75;5.40;;;;;;;18.04;95.60;102190.50;5061912;28;20136;-66
2023/06/01 08:44:53;;;;;;;10.98;5.75;;;;;;;18.23;94.96;102189.97;5060585;28;20060;-64
2023/06/01 08:47:25;;;;;;;12.23;6.10;;;;;;;18.26;94.55;102173.75;5061738;28;20127;-64
2023/06/01 08:49:54;;;;;;;10.25;4.90;;;;;;;18.49;94.69;102179.13;5062895;28;20048;-64
2023/06/01 08:52:28;;;;;;;11.65;5.50;;;;;;;18.75;91.77;102167.22;5062666;28;20048;-64
2023/06/01 08:54:58;;;;;;;12.05;5.53;;;;;;;18.90;93.28;102172.38;5059195;28;20610;-66
2023/06/01 08:57:28;;;;;;;12.88;5.53;;;;;;;19.18;93.20;102175.47;5054663;28;20045;-65
2023/06/01 08:59:56;;;;;;;9.68;4.97;;;;;;;18.90;90.28;102172.38;5061634;28;20052;-65
2023/06/01 09:02:27;;;;;;;11.15;5.25;;;;;;;19.28;87.21;102163.09;5058464;28;20048;-65
2023/06/01 09:04:55;;;;;;;12.93;5.30;;;;;;;19.21;88.47;102164.53;5056205;28;20500;-64
2023/06/01 09:07:23;;;;;;;9.95;5.20;;;;;;;19.47;86.68;102166.91;5057615;28;20368;-64
2023/06/01 09:09:52;;;;;;;12.32;5.07;;;;;;;19.75;87.97;102165.47;5057685;28;20048;-64
2023/06/01 09:12:25;;;;;;;11.15;5.63;;;;;;;19.48;81.83;102168.59;5056257;28;20040;-64
2023/06/01 09:15:09;;;;;;;12.50;5.38;;;;;;;19.86;85.26;102156.59;5060499;28;20554;-64
2023/06/01 09:17:40;;;;;;;11.75;6.28;;;;;;;19.57;80.04;102154.50;5064143;28;20075;-64
2023/06/01 09:20:13;;;;;;;11.43;5.50;;;;;;;19.63;81.51;102159.31;5058062;28;20039;-65
2023/06/01 09:22:41;;;;;;;;;;;;;;;19.71;80.09;102148.00;5055157;28;20060;-65
2023/06/01 09:25:12;;;;;;;10.82;4.65;;;;;;;19.98;81.20;102155.53;5060141;28;19935;-65
2023/06/01 09:27:48;;;;;;;9.88;5.65;;;;;;;20.18;77.17;102137.81;5049809;28;20048;-65
2023/06/01 09:30:18;;;;;;;10.18;5.43;;;;;;;20.44;77.55;102135.56;5059634;28;20044;-65
2023/06/01 09:32:50;;;;;;;11.05;5.43;;;;;;;20.37;77.43;102133.56;5062113;28;20541;-65
2023/06/01 09:35:38;;;;;;;12.63;5.63;;;;;;;20.29;77.34;102138.72;5057295;28;20048;-66
2023/06/01 09:38:06;;;;;;;10.63;5.30;;;;;;;20.62;74.70;102129.59;5055781;28;20045;-65
2023/06/01 09:40:35;;;;;;;11.00;5.60;;;;;;;20.55;77.94;102128.44;5056838;28;20044;-65
2023/06/01 09:43:03;;;;;;;11.10;5.40;;;;;;;20.43;75.29;102127.69;5058694;28;20068;-65
2023/06/01 09:45:32;;;;;;;10.52;4.85;;;;;;;20.68;74.72;102122.84;5056719;28;21042;-65
2023/06/01 09:48:18;;;;;;;9.63;4.75;;;;;;;20.48;75.60;102121.94;5058646;28;20040;-65
2023/06/01 09:50:46;;;;;;;11.23;4.63;;;;;;;20.96;74.79;102118.63;5055401;28;20049;-64
2023/06/01 09:53:15;;;;;;;10.48;4.82;;;;;;;21.27;71.87;102124.72;5057412;28;20415;-65
2023/06/01 09:55:59;;;;;;;9.35;4.78;;;;;;;21.41;70.81;102114.59;5057028;28;20044;-57
2023/06/01 09:58:28;;;;;;;10.00;5.00;;;;;;;21.59;70.58;102112.91;5058892;28;20114;-57
2023/06/01 10:01:00;;;;;;;10.00;4.57;;;;;;;21.67;72.64;102109.53;5060536;28;20673;-57
2023/06/01 10:03:31;;;;;;;11.18;4.70;;;;;;;21.62;69.50;102114.44;5063785;28;20060;-56
2023/06/01 10:06:00;;;;;;;10.00;4.88;;;;;;;21.79;71.31;102107.53;5037387;28;20070;-57
2023/06/01 10:08:30;;;;;;;9.55;4.80;;;;;;;21.86;71.20;102111.34;5057761;28;20474;-57
2023/06/01 10:10:58;;;;;;;9.07;4.65;;;;;;;21.61;68.55;102120.81;5043841;28;20151;-57
2023/06/01 10:13:26;;;;;;;10.27;5.00;;;;;;;21.96;69.09;102119.34;5055201;28;20052;-56
2023/06/01 10:15:55;;;;;;;8.88;5.30;;;;;;;22.25;68.63;102123.75;5058024;28;20399;-57
2023/06/01 10:18:23;;;;;;;12.43;5.40;;;;;;;22.05;67.27;102110.44;5055813;28;20479;-56
2023/06/01 10:20:57;;;;;;;12.18;4.95;;;;;;;22.34;66.62;102109.53;5056468;28;20054;-56
2023/06/01 10:23:25;;;;;;;10.52;4.55;;;;;;;22.78;67.17;102109.75;5055010;28;20045;-57
2023/06/01 10:26:06;;;;;;;10.18;4.60;;;;;;;22.54;65.22;102107.63;5041627;28;20139;-55
2023/06/01 10:28:36;;;;;;;10.90;4.80;;;;;;;22.41;66.85;102110.63;5055016;28;20080;-58
2023/06/01 10:31:33;;;;;;;8.90;3.85;;;;;;;22.76;67.40;102105.53;5056238;28;20044;-66
2023/06/01 10:34:01;;;;;;;9.63;4.90;;;;;;;23.17;62.86;102105.16;5058722;28;20103;-66
2023/06/01 10:37:21;;;;;;;10.00;4.68;;;;;;;23.20;62.04;102100.31;5056675;28;20056;-67
2023/06/01 10:39:54;;;;;;;10.18;4.57;;;;;;;23.40;64.65;102114.44;4995814;28;20042;-67
2023/06/01 10:42:38;;;;;;;9.63;4.53;;;;;;;23.50;60.63;102100.91;4998974;28;20053;-66
2023/06/01 10:45:36;;;;;;;9.50;4.57;;;;;;;23.55;63.67;102103.16;5041892;28;20066;-67
2023/06/01 10:48:06;;;;;;;9.80;4.63;;;;;;;23.62;61.31;102101.53;5073249;28;20127;-67
2023/06/01 10:50:35;;;;;;;9.10;4.00;;;;;;;23.33;60.39;102091.91;5052391;28;20042;-66
2023/06/01 10:53:27;;;;;;;12.88;4.35;;;;;;;23.83;58.00;102087.72;5064437;28;20702;-66
2023/06/01 10:56:21;;;;;;;10.85;4.60;;;;;;;23.92;58.69;102094.03;5071286;28;20049;-67
2023/06/01 10:59:10;;;;;;;9.60;4.43;;;;;;;24.00;57.14;102088.72;5038270;28;20045;-67
2023/06/01 11:01:43;;;;;;;8.27;3.95;;;;;;;24.20;58.14;102093.84;5050719;28;20518;-68
2023/06/01 11:04:12;;;;;;;16.05;5.10;;;;;;;24.01;56.73;102094.94;5055737;28;20029;-68
2023/06/01 11:06:42;;;;;;;9.48;3.95;;;;;;;24.07;56.16;102078.19;5052327;28;20041;-68
2023/06/01 11:09:15;;;;;;;8.77;4.25;;;;;;;24.00;56.23;102077.97;5064359;28;20036;-68
2023/06/01 11:11:59;;;;;;;9.98;4.68;;;;;;;24.33;56.19;102067.38;5061132;28;20344;-67
2023/06/01 11:14:33;;;;;;;7.97;4.15;;;;;;;24.48;55.94;102070.31;5074811;28;20091;-68
2023/06/01 11:17:26;;;;;;;9.00;4.03;;;;;;;25.00;55.41;102069.28;5080111;28;20479;-68
2023/06/01 11:19:58;;;;;;;9.00;4.07;;;;;;;25.12;55.46;102072.50;5062161;28;20392;-67
2023/06/01 11:22:28;;;;;;;9.35;3.92;;;;;;;25.04;52.21;102067.94;5067247;28;20056;-68
2023/06/01 11:24:58;;;;;;;8.70;3.92;;;;;;;25.30;53.22;102065.13;5075100;28;20037;-69
2023/06/01 11:27:28;;;;;;;9.27;4.28;;;;;;;25.36;52.44;102063.63;5074743;28;20124;-68